Share

Board Camp, AR

3:23 AM CDT en Abril 24, 2014 (GMT -0500)
RAWS ODEN AR US (MODEA4) Alt 896 ft | 34.62 °N, 93.81 °W | Change Station

Current weather conditions updated 56 minutes ago

Clear
Despejado
58 ° F
Sensación térmica 58 ° F
N
2
Viento Variable Viento desde NNE
Gusts 4.0 mph
Amanecer 6:34 AM
Atardecer 7:55 PM
Luna Creciente menguante

Hoy se prevé un día Más frío que ayer. Formación de tormentas por la tarde..

Presión 29.81 pul
Visibilidad 10.0 Millas
Nubes Despejado
Punto de rocío 47 ° F
Humedad 68%
Precipitaciones 0.00 pul
Espesor de la nieve No disponible.
UV 0 de una escala de 16
Polen 9.30 de una escala de 12
Calidad del aire No disponible.
Flu Activity Sporadic
METAR KMWT 240753Z AUTO VRB05KT 10SM CLR 18/08 A2984 RMK AO2 SLP095 T01780078

More Conditions Fewer Conditions

Presión 29.81 pul
Visibilidad 10.0 Millas
Nubes Despejado
Punto de rocío 47 ° F
Humedad 68%
Precipitaciones 0.00 pul
Espesor de la nieve No disponible.
UV 0 de una escala de 16
Polen 9.30 de una escala de 12
Calidad del aire No disponible.
Flu Activity Sporadic
METAR KMWT 240753Z AUTO VRB05KT 10SM CLR 18/08 A2984 RMK AO2 SLP095 T01780078

More Conditions Fewer Conditions

10-Day Weather Forecast

Almanac

Astronomía

Apr. 24, 2014 Salida Puesta
Hora real 6:34 AM CDT 7:55 PM CDT
Crepúsculo civil 6:07 AM CDT 8:22 PM CDT
Crepúsculo náutico 5:36 AM CDT 8:54 PM CDT
Crepúsculo astronómico 5:03 AM CDT 9:27 PM CDT
Luna 3:33 AM CDT 3:24 PM CDT
Horas de luz 14h 14m
Horas de luz
13h 21m
Tomorrow will be 1m 56s longer.
Creciente menguante, 28% of the Moon is Illuminated
Hoy
Creciente menguante
Abr 29
Nueva
May 6
Cuarto creciente
May 14
Luna llena
May 21
Cuarto menguante

Extremos de hoy

Máximos del estado Bajos del estado

Community

  • Stacked
    Stacked
  • clouds approaching Red Sox Nation
    clouds approaching Red Sox Nation
  • Balance
    Balance
  • Nestled In
    Nestled In
  • Stunning Sunrise
    Stunning Sunrise

WunderPhotos

Upload Photos

1,704,575 ¡fotos cargadas!

WunderBlogs® & News

Nearby

Grosos de nieve

Estación Profundido Altura
No tenemos constancia de nieve nueva.

Temperaturas de aguas costeras

Lugar Temperatura
Sin partes meteorológicos de las estaciones

Actividad de terremotos

Ciudad Distance Mag. Tiempo y dato
No hay informes recientes de la actividad sísmica.
Magnitud mínima muestra es 2,5.

Estaciones meteorológicas cercanas

Ubicación de la estación Temp. Punto de rocío Humedad Viento Precip. Alt Actualizado Tipo
RAWS ODEN AR, Oden, AR 58 ° F 47 ° F 68% NNE  a  2 mph 0.00 pul / hr 896 ft 2:27 AM CDT MADIS

Show More Stations Show Fewer Stations

What do you think?

We're not finished. Please let us know what you like, what you don't like, and what you are still missing.